Time;durP1;ratioP1;P1;durP2;ratioP2;P2;SDS_P1;SDS_P2;PMS_P1;PMS_P2;Temp;Humidity;BMP_temperature;BMP_pressure;BME280_temperature;BME280_humidity;BME280_pressure;Samples;Min_cycle;Max_cycle;Signal;HPM_P1;HPM_P2
2023/04/28 00:01:19;;;;;;;1.27;0.68;;;;;;;17.27;55.04;96437.69;10346168;28;20045;-30
2023/04/28 00:06:20;;;;;;;1.20;1.00;;;;;;;17.33;60.93;96435.16;10349417;28;20026;-31
2023/04/28 00:11:20;;;;;;;2.50;1.08;;;;;;;17.39;61.80;96430.13;10363030;28;20282;-31
2023/04/28 00:16:21;;;;;;;2.80;1.00;;;;;;;17.41;61.43;96428.47;10342790;28;20088;-31
2023/04/28 00:21:21;;;;;;;2.13;0.70;;;;;;;17.38;57.37;96413.25;10359226;28;20038;-30
2023/04/28 00:26:21;;;;;;;1.63;0.90;;;;;;;17.33;55.99;96404.81;10355799;28;20505;-30
2023/04/28 00:31:22;;;;;;;2.55;1.65;;;;;;;17.30;55.42;96400.59;10331559;28;20064;-31
2023/04/28 00:36:22;;;;;;;2.50;0.77;;;;;;;17.29;55.49;96403.97;10319734;28;20038;-30
2023/04/28 00:41:23;;;;;;;1.00;0.70;;;;;;;17.29;55.39;96377.81;10349505;28;20573;-31
2023/04/28 00:46:29;;;;;;;2.00;0.73;;;;;;;17.27;55.24;96376.97;10344241;28;20041;-30
2023/04/28 00:51:32;;;;;;;1.98;0.75;;;;;;;17.28;55.22;96382.03;10321797;28;20034;-30
2023/04/28 00:56:33;;;;;;;0.93;0.70;;;;;;;17.29;55.39;96382.88;10337256;28;20035;-31
2023/04/28 01:01:34;;;;;;;0.85;0.70;;;;;;;17.27;55.13;96374.44;10343014;28;20548;-30
2023/04/28 01:06:36;;;;;;;0.85;0.77;;;;;;;17.26;55.05;96381.19;10353135;28;20054;-31
2023/04/28 01:11:36;;;;;;;1.85;0.50;;;;;;;17.26;55.19;96380.34;10328447;28;20420;-31
2023/04/28 01:16:44;;;;;;;1.90;0.82;;;;;;;17.27;55.38;96384.56;10334822;28;20037;-32
2023/04/28 01:21:45;;;;;;;2.42;1.00;;;;;;;17.36;61.60;96392.19;10343907;28;20026;-31
2023/04/28 01:26:54;;;;;;;1.80;0.82;;;;;;;17.38;61.78;96413.25;10335866;28;20033;-31
2023/04/28 01:31:56;;;;;;;1.52;0.88;;;;;;;17.39;60.51;96414.94;10355798;28;20026;-30
2023/04/28 01:36:56;;;;;;;2.20;0.97;;;;;;;17.34;56.61;96421.66;10338326;28;20493;-31
2023/04/28 01:41:56;;;;;;;0.80;0.70;;;;;;;17.30;56.01;96425.03;10353328;28;20057;-31
2023/04/28 01:46:57;;;;;;;0.95;0.80;;;;;;;17.28;55.61;96435.16;10345002;28;20480;-31
2023/04/28 01:51:58;;;;;;;1.73;0.75;;;;;;;17.28;55.31;96452.03;10339356;28;20173;-31
2023/04/28 01:56:58;;;;;;;0.80;0.60;;;;;;;17.27;55.40;96456.25;10346776;28;20022;-31
2023/04/28 02:01:59;;;;;;;1.55;0.82;;;;;;;17.26;55.61;96458.78;10320324;28;20165;-31
2023/04/28 02:07:00;;;;;;;0.70;0.47;;;;;;;17.26;55.05;96468.91;10329938;28;20027;-31
2023/04/28 02:12:01;;;;;;;0.80;0.60;;;;;;;17.25;55.21;96467.22;10335677;28;20488;-31
2023/04/28 02:17:04;;;;;;;0.50;0.40;;;;;;;17.24;54.83;96465.53;10337451;28;20034;-31
2023/04/28 02:22:04;;;;;;;0.80;0.70;;;;;;;17.22;54.46;96463.00;10329527;28;20038;-34
2023/04/28 02:27:05;;;;;;;2.37;0.83;;;;;;;17.22;54.71;96452.00;10329314;28;20030;-31
2023/04/28 02:32:05;;;;;;;2.75;0.98;;;;;;;17.32;60.51;96448.66;10332920;28;20030;-30
2023/04/28 02:37:06;;;;;;;1.63;0.90;;;;;;;17.35;61.44;96446.13;10334727;28;20087;-31
2023/04/28 02:42:07;;;;;;;2.00;1.00;;;;;;;17.38;61.21;96438.56;10337111;28;20516;-30
2023/04/28 02:47:09;;;;;;;1.90;0.90;;;;;;;17.34;58.29;96439.38;10319792;28;20129;-33
2023/04/28 02:52:10;;;;;;;0.90;0.60;;;;;;;17.29;56.06;96430.94;10345006;28;20105;-32
2023/04/28 02:57:10;;;;;;;2.65;0.70;;;;;;;17.25;55.86;96426.75;10339582;28;20145;-31
2023/04/28 03:02:11;;;;;;;1.17;0.80;;;;;;;17.24;55.31;96420.81;10346136;28;20037;-30
2023/04/28 03:07:12;;;;;;;1.52;0.70;;;;;;;17.25;55.72;96421.69;10341728;28;20030;-30
2023/04/28 03:12:12;;;;;;;0.63;0.53;;;;;;;17.26;55.15;96420.81;10335279;28;20507;-32
2023/04/28 03:17:12;;;;;;;1.50;0.70;;;;;;;17.27;55.11;96425.91;10326640;28;20307;-30
2023/04/28 03:22:13;;;;;;;3.30;0.60;;;;;;;17.27;55.35;96409.88;10327354;28;20030;-32
2023/04/28 03:27:13;;;;;;;1.23;0.70;;;;;;;17.27;54.66;96425.03;10344700;28;20492;-31
2023/04/28 03:32:14;;;;;;;1.20;0.70;;;;;;;17.26;54.86;96419.13;10336345;28;20057;-30
2023/04/28 03:37:14;;;;;;;0.93;0.57;;;;;;;17.25;55.00;96403.97;10330069;28;20060;-31
2023/04/28 03:42:15;;;;;;;1.10;0.55;;;;;;;17.29;54.97;96405.63;10332506;28;20489;-33
2023/04/28 03:47:35;;;;;;;2.15;1.08;;;;;;;17.35;60.99;96398.06;10358111;28;20082;-30
2023/04/28 03:52:35;;;;;;;1.17;0.70;;;;;;;17.38;60.91;96393.88;10333556;28;21403;-31
2023/04/28 03:57:36;;;;;;;0.60;0.57;;;;;;;17.39;57.31;96395.56;10354253;28;20041;-30
2023/04/28 04:02:36;;;;;;;2.30;1.00;;;;;;;17.38;55.38;96375.28;10329677;28;20085;-31
2023/04/28 04:07:36;;;;;;;2.80;0.90;;;;;;;17.38;57.17;96371.09;10349394;28;20293;-30
2023/04/28 04:12:37;;;;;;;2.45;2.05;;;;;;;17.34;59.34;96366.00;10347821;28;20057;-30
2023/04/28 04:17:37;;;;;;;2.10;0.53;;;;;;;17.39;55.70;96374.44;10336068;28;20113;-31
2023/04/28 04:22:38;;;;;;;1.45;0.90;;;;;;;17.38;55.38;96377.81;10346983;28;20038;-31
2023/04/28 04:27:38;;;;;;;1.53;0.60;;;;;;;17.39;55.09;96379.50;10352441;28;20031;-30
2023/04/28 04:32:38;;;;;;;1.10;0.60;;;;;;;17.40;55.58;96376.16;10329005;28;20571;-31
2023/04/28 04:37:40;;;;;;;3.33;1.30;;;;;;;17.39;56.37;96379.50;10338450;28;20834;-31
2023/04/28 04:42:40;;;;;;;0.93;0.70;;;;;;;17.38;55.54;96381.22;10313109;28;20031;-31
2023/04/28 04:47:44;;;;;;;1.80;0.73;;;;;;;17.36;55.91;96387.97;10332544;28;20444;-30
2023/04/28 04:52:45;;;;;;;2.13;1.48;;;;;;;17.38;55.78;96393.00;10346727;28;20041;-30
2023/04/28 04:57:45;;;;;;;5.13;1.10;;;;;;;17.43;61.03;96401.44;10333670;28;20026;-30
2023/04/28 05:03:05;;;;;;;3.40;1.23;;;;;;;17.47;60.98;96385.41;10331229;28;20309;-30
2023/04/28 05:08:05;;;;;;;4.63;1.60;;;;;;;17.46;60.78;96378.66;10335270;28;20563;-31
2023/04/28 05:13:06;;;;;;;3.88;0.88;;;;;;;17.45;55.88;96374.44;10318340;28;20092;-30
2023/04/28 05:18:09;;;;;;;3.00;0.63;;;;;;;17.43;55.51;96371.94;10335272;28;20059;-30
2023/04/28 05:23:10;;;;;;;0.88;0.65;;;;;;;17.41;55.84;96380.38;10354651;28;20128;-31
2023/04/28 05:28:10;;;;;;;1.25;0.98;;;;;;;17.42;55.24;96374.47;10338715;28;20121;-31
2023/04/28 05:33:11;;;;;;;4.43;0.85;;;;;;;17.42;55.56;96374.47;10328207;28;20026;-31
2023/04/28 05:38:11;;;;;;;3.55;1.40;;;;;;;17.38;55.84;96372.75;10344378;28;20026;-30
2023/04/28 05:43:12;;;;;;;1.63;1.05;;;;;;;17.40;55.13;96373.63;10344130;28;20033;-31
2023/04/28 05:48:12;;;;;;;2.00;0.82;;;;;;;17.37;55.23;96376.16;10348687;28;20034;-31
2023/04/28 05:53:14;;;;;;;2.90;0.88;;;;;;;17.39;55.03;96376.97;10324314;28;20065;-31
2023/04/28 05:58:15;;;;;;;5.38;0.90;;;;;;;17.38;54.83;96377.81;10354410;28;20425;-30
2023/04/28 06:03:17;;;;;;;1.80;0.63;;;;;;;17.37;55.04;96376.16;10342412;28;20033;-31
2023/04/28 06:08:19;;;;;;;6.80;1.98;;;;;;;17.42;58.95;96382.06;10344601;28;20029;-31
2023/04/28 06:13:19;;;;;;;6.70;2.80;;;;;;;17.54;60.86;96372.75;10350360;28;20042;-30
2023/04/28 06:18:20;;;;;;;6.80;3.17;;;;;;;17.57;59.88;96382.03;10350547;28;20334;-31
2023/04/28 06:23:20;;;;;;;2.45;1.10;;;;;;;17.47;55.67;96390.47;10336432;28;20030;-31
2023/04/28 06:28:22;;;;;;;3.85;0.90;;;;;;;17.41;54.50;96382.91;10331703;28;20049;-30
2023/04/28 06:33:23;;;;;;;4.63;1.07;;;;;;;17.35;55.56;96366.00;10344229;28;20508;-31
2023/04/28 06:38:23;;;;;;;27.67;4.00;;;;;;;17.34;55.37;96381.19;10343352;28;20081;-31
2023/04/28 06:43:23;;;;;;;7.80;2.28;;;;;;;17.33;55.98;96390.44;10338896;28;20037;-31
2023/04/28 06:48:36;;;;;;;10.68;2.30;;;;;;;17.31;55.59;96371.91;10325659;28;20409;-30
2023/04/28 06:53:37;;;;;;;8.13;1.50;;;;;;;17.33;54.84;96384.56;10336148;28;20038;-31
2023/04/28 06:58:41;;;;;;;18.77;3.17;;;;;;;17.33;55.96;96394.69;10336897;28;20113;-30
2023/04/28 07:03:42;;;;;;;15.70;2.10;;;;;;;17.35;55.13;96410.69;10324985;28;20076;-31
2023/04/28 07:08:42;;;;;;;9.88;1.50;;;;;;;17.32;54.81;96423.38;10332557;28;20042;-31
2023/04/28 07:13:45;;;;;;;10.60;1.75;;;;;;;17.31;54.50;96403.97;10325626;28;20114;-30
2023/04/28 07:18:45;;;;;;;17.40;8.82;;;;;;;17.34;58.34;96403.97;10355764;28;20052;-32
2023/04/28 07:23:45;;;;;;;18.63;12.33;;;;;;;17.49;62.39;96404.00;10352147;28;20129;-30
2023/04/28 07:28:46;;;;;;;23.17;11.63;;;;;;;17.52;62.94;96396.38;10334415;28;20398;-31
2023/04/28 07:33:46;;;;;;;15.15;5.53;;;;;;;17.46;59.19;96417.47;10349045;28;20459;-31
2023/04/28 07:38:47;;;;;;;6.93;2.83;;;;;;;17.40;55.20;96412.41;10338765;28;20038;-31
2023/04/28 07:43:47;;;;;;;8.15;2.75;;;;;;;17.35;54.86;96403.97;10335237;28;20084;-31
2023/04/28 07:48:47;;;;;;;4.97;2.90;;;;;;;17.34;54.98;96409.03;10346796;28;20030;-31
2023/04/28 07:53:48;;;;;;;6.70;3.77;;;;;;;17.30;54.73;96394.66;10326459;28;20297;-31
2023/04/28 07:58:48;;;;;;;4.43;2.50;;;;;;;17.33;54.76;96412.41;10337639;28;20378;-31
2023/04/28 08:03:49;;;;;;;4.43;2.80;;;;;;;17.35;54.89;96418.28;10347316;28;20073;-30
2023/04/28 08:08:49;;;;;;;8.23;3.67;;;;;;;17.36;54.18;96414.94;10345869;28;20343;-30
2023/04/28 08:13:49;;;;;;;4.20;2.90;;;;;;;17.35;54.40;96418.28;10339290;28;20351;-30
2023/04/28 08:18:50;;;;;;;10.83;4.17;;;;;;;17.34;54.59;96416.59;10340497;28;20113;-32
2023/04/28 08:23:50;;;;;;;7.57;3.67;;;;;;;17.31;54.38;96414.09;10350562;28;20033;-30
2023/04/28 08:28:51;;;;;;;10.13;4.47;;;;;;;17.33;54.64;96420.00;10351349;28;20121;-31
2023/04/28 08:33:52;;;;;;;16.75;8.88;;;;;;;17.41;63.18;96423.41;10342049;28;20424;-31
2023/04/28 08:38:52;;;;;;;16.90;8.33;;;;;;;17.44;63.86;96438.56;10341575;28;20027;-30
2023/04/28 08:43:53;;;;;;;12.70;7.07;;;;;;;17.42;59.07;96456.28;10337034;28;20705;-30
2023/04/28 08:49:00;;;;;;;10.10;5.13;;;;;;;17.34;56.90;96452.84;10366043;28;20359;-30
2023/04/28 08:54:03;;;;;;;9.93;5.10;;;;;;;17.36;55.94;96476.53;10330305;28;20316;-30
2023/04/28 08:59:04;;;;;;;8.95;4.18;;;;;;;17.35;56.38;96484.09;10343643;28;20388;-31
2023/04/28 09:04:04;;;;;;;9.38;4.88;;;;;;;17.34;55.94;96473.09;10333650;28;20033;-29
2023/04/28 09:09:21;;;;;;;6.80;4.60;;;;;;;17.33;55.74;96466.34;10331102;28;20520;-32
2023/04/28 09:14:22;;;;;;;9.88;4.95;;;;;;;17.33;55.55;96471.41;10342521;28;20459;-31
2023/04/28 09:19:31;;;;;;;9.90;4.60;;;;;;;17.32;55.58;96479.84;10336520;28;20034;-31
2023/04/28 09:24:34;;;;;;;8.32;4.20;;;;;;;17.32;55.49;96473.97;10355808;28;20045;-31
2023/04/28 09:29:35;;;;;;;6.18;3.70;;;;;;;17.32;55.73;96489.16;10337777;28;20483;-31
2023/04/28 09:34:45;;;;;;;6.45;3.70;;;;;;;17.30;55.34;96483.22;10350096;28;20041;-31
2023/04/28 09:39:49;;;;;;;6.60;3.78;;;;;;;17.32;55.61;96494.22;10361908;28;20045;-31
2023/04/28 09:44:53;;;;;;;18.88;9.48;;;;;;;17.43;64.56;96483.28;10349721;28;20037;-31
2023/04/28 09:49:58;;;;;;;19.17;9.23;;;;;;;17.48;64.28;96483.28;10350493;28;20037;-31
2023/04/28 09:55:01;;;;;;;6.97;4.88;;;;;;;17.47;58.48;96494.22;10343153;28;20405;-31
2023/04/28 10:00:05;;;;;;;7.38;3.88;;;;;;;17.43;56.43;96488.34;10338940;28;20566;-31
2023/04/28 10:05:08;;;;;;;6.07;4.25;;;;;;;17.41;56.14;96486.66;10344907;28;20067;-31
2023/04/28 10:10:09;;;;;;;8.32;4.38;;;;;;;17.38;55.93;96479.03;10359207;28;20041;-31
2023/04/28 10:15:11;;;;;;;6.38;3.60;;;;;;;17.39;55.86;96483.25;10321875;28;20583;-31
2023/04/28 10:20:14;;;;;;;7.20;3.92;;;;;;;17.39;55.57;96485.78;10353525;28;20081;-31
2023/04/28 10:25:27;;;;;;;6.22;3.40;;;;;;;17.40;55.50;96497.63;10337879;28;20049;-31
2023/04/28 10:30:28;;;;;;;4.63;3.50;;;;;;;17.38;55.54;96484.09;10320242;28;20042;-31
2023/04/28 10:35:31;;;;;;;6.65;3.58;;;;;;;17.39;55.34;96485.78;10334643;28;20045;-30
2023/04/28 10:40:41;;;;;;;7.82;3.90;;;;;;;17.37;55.36;96477.34;10337560;28;20042;-31
2023/04/28 10:45:48;;;;;;;7.75;3.88;;;;;;;17.37;55.14;96483.28;10333131;28;20080;-30
2023/04/28 10:51:14;;;;;;;4.18;2.92;;;;;;;17.38;55.22;96490.03;10360731;28;20084;-32
2023/04/28 10:56:24;;;;;;;9.30;6.53;;;;;;;17.48;63.25;96481.59;10341061;28;20053;-32
2023/04/28 11:01:29;;;;;;;12.77;6.97;;;;;;;17.57;63.88;96480.75;10301326;28;20508;-30
2023/04/28 11:06:46;;;;;;;7.45;4.20;;;;;;;17.53;57.98;96474.84;10324684;28;20424;-30
2023/04/28 11:11:58;;;;;;;;;;;;;;;17.49;55.48;96464.72;10315743;28;20043;-31
2023/04/28 11:17:33;;;;;;;6.30;3.58;;;;;;;17.46;55.55;96465.56;10365091;28;19922;-30
2023/04/28 11:22:33;;;;;;;4.35;3.15;;;;;;;17.45;55.57;96461.34;10319253;28;20042;-31
2023/04/28 11:27:36;;;;;;;9.60;4.07;;;;;;;17.43;55.79;96457.13;10334535;28;20031;-30
2023/04/28 11:32:39;;;;;;;5.88;3.92;;;;;;;17.43;55.37;96462.19;10345415;28;20038;-31
2023/04/28 11:37:39;;;;;;;7.78;4.05;;;;;;;17.43;55.23;96452.06;10351892;28;20042;-31
2023/04/28 11:42:49;;;;;;;7.67;4.03;;;;;;;17.37;55.09;96447.00;10333426;28;20054;-31
2023/04/28 11:47:49;;;;;;;11.68;6.13;;;;;;;17.43;55.50;96449.53;10340251;28;20031;-31
2023/04/28 11:52:50;;;;;;;9.27;5.30;;;;;;;17.49;55.27;96444.47;10359294;28;20033;-30
2023/04/28 11:58:22;;;;;;;12.23;5.38;;;;;;;17.50;55.12;96439.41;10332833;28;20039;-30
2023/04/28 12:03:22;;;;;;;22.40;9.07;;;;;;;17.49;55.66;96421.69;10345530;28;20083;-30
2023/04/28 12:08:30;;;;;;;60.97;26.73;;;;;;;17.59;63.26;96431.78;10342758;28;20034;-32
2023/04/28 12:13:30;;;;;;;78.78;33.33;;;;;;;17.61;64.47;96421.69;10334046;28;20507;-31
2023/04/28 12:18:38;;;;;;;24.42;12.88;;;;;;;17.58;58.07;96414.09;10331995;28;20038;-31
2023/04/28 12:23:38;;;;;;;14.73;7.88;;;;;;;17.52;55.80;96412.41;10366354;28;20041;-30
2023/04/28 12:28:40;;;;;;;16.67;8.88;;;;;;;17.53;55.35;96408.19;10341413;28;20038;-32
2023/04/28 12:33:40;;;;;;;20.92;9.68;;;;;;;17.51;55.62;96420.00;10343086;28;20066;-31
2023/04/28 12:38:47;;;;;;;19.43;10.07;;;;;;;17.50;55.55;96403.97;10341844;28;20038;-32
2023/04/28 12:43:48;;;;;;;19.15;9.85;;;;;;;17.50;55.51;96423.38;10338271;28;20074;-32
2023/04/28 12:48:48;;;;;;;21.00;10.80;;;;;;;17.51;55.63;96414.94;10322554;28;20039;-31
2023/04/28 12:53:49;;;;;;;19.42;10.60;;;;;;;17.49;55.72;96406.50;10333250;28;20041;-31
2023/04/28 12:58:49;;;;;;;26.10;12.73;;;;;;;17.48;55.97;96399.78;10350660;28;20458;-31
2023/04/28 13:03:52;;;;;;;26.97;13.67;;;;;;;17.48;57.27;96410.72;10328923;28;20042;-31
2023/04/28 13:08:52;;;;;;;22.95;11.55;;;;;;;17.47;56.02;96395.53;10332260;28;20897;-30
2023/04/28 13:13:53;;;;;;;24.83;12.23;;;;;;;17.47;56.36;96400.59;10337796;28;20042;-30
2023/04/28 13:18:53;;;;;;;46.10;22.13;;;;;;;17.59;63.15;96401.41;10350880;28;20830;-32
2023/04/28 13:23:55;;;;;;;50.63;26.30;;;;;;;17.65;63.21;96403.13;10339658;28;20042;-31
2023/04/28 13:28:55;;;;;;;34.55;18.88;;;;;;;17.62;60.78;96398.03;10347298;28;20088;-31
2023/04/28 13:33:56;;;;;;;25.00;13.38;;;;;;;17.56;56.81;96385.41;10348118;28;20459;-31
2023/04/28 13:38:57;;;;;;;22.50;12.45;;;;;;;17.51;56.03;96380.34;10347803;28;20029;-31
2023/04/28 13:43:57;;;;;;;28.23;14.07;;;;;;;17.50;56.62;96373.59;10329828;28;20054;-31
2023/04/28 13:48:57;;;;;;;26.70;13.27;;;;;;;17.49;56.63;96371.91;10347277;28;20037;-30
2023/04/28 13:53:58;;;;;;;27.48;15.60;;;;;;;17.49;57.06;96363.50;10354712;28;20701;-30
2023/04/28 13:58:58;;;;;;;37.87;18.77;;;;;;;17.49;57.72;96396.38;10332147;28;20401;-31
2023/04/28 14:03:59;;;;;;;29.45;15.90;;;;;;;17.48;57.20;96357.56;10349126;28;20422;-30
2023/04/28 14:09:00;;;;;;;30.83;16.23;;;;;;;17.49;57.37;96373.63;10354205;28;20488;-30
2023/04/28 14:14:00;;;;;;;24.23;14.27;;;;;;;17.49;57.50;96371.09;10345408;28;20037;-31
2023/04/28 14:19:01;;;;;;;24.93;13.67;;;;;;;17.49;57.25;96350.84;10361150;28;20038;-30
2023/04/28 14:24:01;;;;;;;22.63;13.75;;;;;;;17.46;56.98;96346.63;10345393;28;20088;-31
2023/04/28 14:29:01;;;;;;;36.83;19.13;;;;;;;17.57;64.19;96334.78;10349052;28;20041;-31
2023/04/28 14:34:03;;;;;;;36.33;18.93;;;;;;;17.62;64.89;96343.22;10343283;28;20033;-31
2023/04/28 14:39:03;;;;;;;31.30;17.20;;;;;;;17.64;62.48;96335.59;10367313;28;20198;-31
2023/04/28 14:44:03;;;;;;;28.67;14.23;;;;;;;17.56;58.35;96347.44;10332154;28;20046;-30
2023/04/28 14:49:04;;;;;;;26.03;12.97;;;;;;;17.50;57.34;96342.41;10344051;28;20569;-31
2023/04/28 14:54:05;;;;;;;25.92;14.50;;;;;;;17.48;57.11;96339.84;10344479;28;20412;-31
2023/04/28 14:59:07;;;;;;;23.08;13.48;;;;;;;17.48;57.92;96337.31;10335805;28;20046;-30
2023/04/28 15:04:08;;;;;;;21.73;13.10;;;;;;;17.47;57.11;96349.97;10343500;28;20038;-31
2023/04/28 15:09:09;;;;;;;21.10;12.40;;;;;;;17.46;57.29;96331.44;10344083;28;20041;-31
2023/04/28 15:14:10;;;;;;;20.95;12.02;;;;;;;17.46;57.19;96328.03;10340045;28;20045;-30
2023/04/28 15:19:10;;;;;;;24.17;12.13;;;;;;;17.44;56.67;96317.94;10313772;28;20093;-30
2023/04/28 15:24:11;;;;;;;28.90;15.10;;;;;;;17.47;58.54;96330.59;10315627;28;20030;-30
2023/04/28 15:29:11;;;;;;;22.75;12.40;;;;;;;17.48;57.93;96318.78;10334756;28;20277;-31
2023/04/28 15:34:12;;;;;;;34.27;13.40;;;;;;;17.47;58.54;96312.00;10331694;28;20045;-31
2023/04/28 15:39:13;;;;;;;26.63;14.77;;;;;;;17.55;64.47;96320.44;10345893;28;20284;-30
2023/04/28 15:44:16;;;;;;;26.92;14.07;;;;;;;17.66;64.54;96326.31;10322601;28;20018;-31
2023/04/28 15:49:16;;;;;;;28.00;14.77;;;;;;;17.69;65.25;96313.66;10318606;28;20033;-30
2023/04/28 15:54:17;;;;;;;22.73;12.00;;;;;;;17.59;58.76;96301.88;10338862;28;20037;-31
2023/04/28 15:59:17;;;;;;;18.40;11.50;;;;;;;17.48;57.41;96291.78;10340205;28;20034;-30
2023/04/28 16:04:18;;;;;;;21.20;11.15;;;;;;;17.51;57.05;96293.47;10322439;28;20044;-31
2023/04/28 16:09:18;;;;;;;17.60;10.83;;;;;;;17.49;57.45;96295.16;10333605;28;20121;-31
2023/04/28 16:14:18;;;;;;;18.30;10.47;;;;;;;17.46;57.23;96292.63;10310166;28;20118;-32
2023/04/28 16:19:20;;;;;;;19.47;11.07;;;;;;;17.46;57.34;96290.09;10321954;28;20037;-30
2023/04/28 16:24:21;;;;;;;18.75;10.55;;;;;;;17.43;57.07;96287.56;10313298;28;20042;-30
2023/04/28 16:29:22;;;;;;;17.50;9.60;;;;;;;17.41;56.47;96297.69;10325532;28;20034;-31
2023/04/28 16:34:22;;;;;;;16.58;10.45;;;;;;;17.42;57.09;96301.91;10324750;28;20479;-31
2023/04/28 16:39:25;;;;;;;17.50;10.07;;;;;;;17.54;65.11;96298.50;10331694;28;20030;-30
2023/04/28 16:44:27;;;;;;;23.08;10.27;;;;;;;17.65;65.55;96307.75;10330948;28;20117;-31
2023/04/28 16:49:27;;;;;;;26.30;11.07;;;;;;;17.69;66.15;96306.91;10325811;28;20085;-31
2023/04/28 16:54:29;;;;;;;19.83;9.23;;;;;;;17.61;62.23;96306.09;10319653;28;20046;-30
2023/04/28 16:59:30;;;;;;;20.27;10.13;;;;;;;17.52;59.54;96301.06;10334563;28;20385;-30
2023/04/28 17:04:30;;;;;;;20.77;9.33;;;;;;;17.50;58.34;96297.66;10338193;28;20052;-31
2023/04/28 17:09:31;;;;;;;21.53;8.63;;;;;;;17.50;58.44;96289.25;10336866;28;20041;-31
2023/04/28 17:14:32;;;;;;;20.05;8.93;;;;;;;17.48;58.40;96293.47;10347715;28;20305;-30
2023/04/28 17:19:32;;;;;;;21.23;8.48;;;;;;;17.47;58.29;96294.31;10324994;28;20038;-31
2023/04/28 17:24:33;;;;;;;15.90;8.10;;;;;;;17.43;57.96;96285.91;10354427;28;20400;-30
2023/04/28 17:29:33;;;;;;;15.10;8.77;;;;;;;17.45;57.84;96293.47;10331725;28;20313;-31
2023/04/28 17:34:34;;;;;;;14.73;8.50;;;;;;;17.43;57.80;96285.91;10318680;28;20101;-30
2023/04/28 17:39:34;;;;;;;17.58;8.10;;;;;;;17.52;61.30;96292.59;10337048;28;20030;-30
2023/04/28 17:44:35;;;;;;;27.17;7.37;;;;;;;17.66;63.64;96293.41;10338646;28;20042;-30
2023/04/28 17:49:36;;;;;;;13.48;4.82;;;;;;;17.62;62.28;96296.78;10332953;28;20045;-30
2023/04/28 17:54:37;;;;;;;13.45;5.82;;;;;;;17.56;59.68;96297.66;10320620;28;20084;-31
2023/04/28 17:59:38;;;;;;;11.97;6.80;;;;;;;17.49;57.55;96300.22;10337983;28;20057;-30
2023/04/28 18:04:39;;;;;;;12.18;6.25;;;;;;;17.48;57.82;96301.06;10330316;28;20087;-30
2023/04/28 18:09:39;;;;;;;10.43;6.18;;;;;;;17.44;57.16;96307.81;10344047;28;20030;-31
2023/04/28 18:14:42;;;;;;;12.45;6.70;;;;;;;17.43;56.85;96308.69;10343992;28;20038;-30
2023/04/28 18:19:43;;;;;;;8.98;4.78;;;;;;;17.48;60.71;96309.50;10340348;28;20412;-31
2023/04/28 18:24:43;;;;;;;7.23;3.63;;;;;;;17.61;66.22;96317.88;10351781;28;20036;-29
2023/04/28 18:29:44;;;;;;;7.75;5.28;;;;;;;17.59;62.84;96317.88;10344572;28;20041;-30
2023/04/28 18:34:45;;;;;;;9.07;4.97;;;;;;;17.49;59.24;96316.22;10333215;28;20042;-30
2023/04/28 18:39:45;;;;;;;10.27;6.03;;;;;;;17.45;57.39;96313.72;10336818;28;20497;-30
2023/04/28 18:44:45;;;;;;;7.97;5.30;;;;;;;17.44;56.95;96319.63;10342408;28;20065;-30
2023/04/28 18:49:46;;;;;;;9.93;5.73;;;;;;;17.39;56.74;96324.69;10333896;28;20049;-30
2023/04/28 18:54:46;;;;;;;8.73;4.73;;;;;;;17.41;56.68;96329.75;10344366;28;20444;-31
2023/04/28 18:59:47;;;;;;;10.23;5.47;;;;;;;17.40;56.49;96338.22;10344010;28;20097;-30
2023/04/28 19:04:48;;;;;;;8.20;5.07;;;;;;;17.39;56.45;96346.63;10338507;28;20121;-30
2023/04/28 19:09:48;;;;;;;5.30;3.13;;;;;;;17.56;65.88;96357.56;10328447;28;20042;-30
2023/04/28 19:14:48;;;;;;;6.80;4.20;;;;;;;17.61;66.59;96358.38;10322405;28;20054;-30
2023/04/28 19:19:49;;;;;;;6.97;3.83;;;;;;;17.58;60.05;96350.81;10333970;28;20045;-30
2023/04/28 19:24:49;;;;;;;7.70;4.30;;;;;;;17.47;58.03;96365.16;10340617;28;20026;-31
2023/04/28 19:29:50;;;;;;;5.03;3.97;;;;;;;17.44;57.46;96367.72;10320322;28;20061;-31
2023/04/28 19:34:50;;;;;;;7.13;4.43;;;;;;;17.41;57.13;96362.66;10341385;28;20257;-30
2023/04/28 19:39:51;;;;;;;6.57;4.63;;;;;;;17.40;56.67;96382.03;10343499;28;20034;-30
2023/04/28 19:44:56;;;;;;;5.82;4.25;;;;;;;17.38;56.79;96383.75;10341663;28;20091;-30
2023/04/28 19:49:56;;;;;;;5.50;3.83;;;;;;;17.39;56.65;96389.63;10304099;28;20551;-30
2023/04/28 19:54:57;;;;;;;7.43;4.23;;;;;;;17.39;56.31;96409.88;10338330;28;20095;-31
2023/04/28 19:59:57;;;;;;;6.25;3.45;;;;;;;17.42;59.51;96400.59;10343781;28;20454;-30
2023/04/28 20:04:58;;;;;;;5.95;3.45;;;;;;;17.57;65.97;96399.75;10316559;28;20038;-30
2023/04/28 20:09:58;;;;;;;7.93;3.78;;;;;;;17.63;62.46;96407.31;10338826;28;20049;-30
2023/04/28 20:14:59;;;;;;;6.68;3.80;;;;;;;17.53;59.70;96414.09;10326823;28;20039;-30
2023/04/28 20:19:59;;;;;;;5.93;3.33;;;;;;;17.44;57.44;96413.25;10320218;28;20484;-31
2023/04/28 20:25:04;;;;;;;5.53;3.33;;;;;;;17.40;57.01;96416.66;10346210;28;20034;-30
2023/04/28 20:30:05;;;;;;;7.00;3.72;;;;;;;17.39;56.72;96409.88;10330902;28;20066;-30
2023/04/28 20:35:06;;;;;;;5.80;3.85;;;;;;;17.38;56.59;96415.78;10338738;28;20066;-30
2023/04/28 20:40:09;;;;;;;5.63;3.30;;;;;;;17.37;56.26;96419.16;10345421;28;20056;-30
2023/04/28 20:45:10;;;;;;;5.88;3.33;;;;;;;17.36;56.33;96425.94;10342430;28;20034;-30
2023/04/28 20:50:10;;;;;;;4.28;2.97;;;;;;;17.34;56.04;96417.44;10339922;28;20064;-30
2023/04/28 20:55:11;;;;;;;6.70;3.33;;;;;;;17.51;65.59;96414.94;10332914;28;20042;-31
2023/04/28 21:00:11;;;;;;;10.27;3.00;;;;;;;17.59;66.64;96421.66;10330421;28;20034;-30
2023/04/28 21:05:12;;;;;;;5.53;3.05;;;;;;;17.59;61.21;96425.91;10323842;28;20336;-30
2023/04/28 21:10:12;;;;;;;5.30;3.40;;;;;;;17.48;60.78;96425.91;10335813;28;20042;-30
2023/04/28 21:15:16;;;;;;;4.40;2.75;;;;;;;17.42;57.40;96435.19;10330549;28;20125;-30
2023/04/28 21:20:16;;;;;;;6.05;3.22;;;;;;;17.37;56.58;96426.75;10346381;28;20037;-30
2023/04/28 21:25:17;;;;;;;4.40;3.03;;;;;;;17.36;56.62;96433.53;10319671;28;20043;-30
2023/04/28 21:30:18;;;;;;;3.23;2.77;;;;;;;17.36;56.67;96427.59;10308957;28;20045;-30
2023/04/28 21:35:18;;;;;;;4.97;2.80;;;;;;;17.37;56.85;96436.88;10343137;28;20045;-30
2023/04/28 21:40:19;;;;;;;3.92;2.92;;;;;;;17.36;57.32;96427.59;10339827;28;20026;-31
2023/04/28 21:45:19;;;;;;;5.77;3.13;;;;;;;17.34;55.97;96427.56;10344434;28;20038;-29
2023/04/28 21:50:20;;;;;;;4.47;3.43;;;;;;;17.34;56.26;96435.16;10339141;28;20297;-31
2023/04/28 21:55:20;;;;;;;4.67;2.80;;;;;;;17.53;66.27;96433.50;10343894;28;20035;-31
2023/04/28 22:00:22;;;;;;;4.88;3.33;;;;;;;17.59;67.12;96423.38;10352004;28;20289;-31
2023/04/28 22:05:23;;;;;;;5.40;2.95;;;;;;;17.55;62.01;96426.72;10340121;28;20492;-30
2023/04/28 22:10:24;;;;;;;5.68;3.10;;;;;;;17.44;57.71;96420.84;10345802;28;20039;-31
2023/04/28 22:15:24;;;;;;;3.87;2.87;;;;;;;17.42;56.94;96410.72;10352275;28;20045;-30
2023/04/28 22:20:25;;;;;;;3.55;2.22;;;;;;;17.40;56.62;96411.59;10331139;28;20487;-30
2023/04/28 22:25:25;;;;;;;4.30;2.88;;;;;;;17.38;56.26;96414.09;10338178;28;20390;-31
2023/04/28 22:30:26;;;;;;;3.40;2.37;;;;;;;17.38;56.21;96420.84;10351830;28;20033;-30
2023/04/28 22:35:26;;;;;;;3.65;2.25;;;;;;;17.37;56.08;96427.59;10313433;28;20802;-31
2023/04/28 22:40:27;;;;;;;3.22;2.33;;;;;;;17.37;55.82;96436.88;10347486;28;20041;-30
2023/04/28 22:45:27;;;;;;;3.90;2.43;;;;;;;17.38;56.16;96441.09;10349620;28;20037;-30
2023/04/28 22:50:30;;;;;;;6.23;2.67;;;;;;;17.36;55.68;96433.53;10336966;28;21035;-30
2023/04/28 22:55:30;;;;;;;3.88;2.38;;;;;;;17.54;66.12;96445.31;10338606;28;20575;-30
2023/04/28 23:00:30;;;;;;;4.47;2.50;;;;;;;17.60;66.83;96445.31;10338892;28;20519;-30
2023/04/28 23:05:31;;;;;;;2.97;2.28;;;;;;;17.57;60.89;96445.31;10332274;28;20294;-30
2023/04/28 23:10:31;;;;;;;3.03;2.40;;;;;;;17.46;57.69;96436.88;10340133;28;20044;-31
2023/04/28 23:15:31;;;;;;;2.97;2.23;;;;;;;17.43;56.80;96444.47;10352653;28;20088;-30